Time;durP1;ratioP1;P1;durP2;ratioP2;P2;SDS_P1;SDS_P2;PMS_P1;PMS_P2;Temp;Humidity;BMP_temperature;BMP_pressure;BME280_temperature;BME280_humidity;BME280_pressure;Samples;Min_cycle;Max_cycle;Signal;HPM_P1;HPM_P2
2022/02/04 00:24:36;;;;;;;2.13;1.17;;;16.60;67.20;;;;;;4993995;28;20037;-78
2022/02/04 00:27:09;;;;;;;2.50;1.15;;;16.50;67.20;;;;;;4995143;28;20022;-77
2022/02/04 00:29:54;;;;;;;2.53;1.00;;;16.50;67.20;;;;;;4994832;28;20033;-79
2022/02/04 00:32:23;;;;;;;2.63;1.17;;;16.50;67.20;;;;;;4994593;28;20042;-79
2022/02/04 00:34:55;;;;;;;1.73;1.13;;;16.50;67.20;;;;;;4994165;28;20041;-80
2022/02/04 00:37:51;;;;;;;2.78;1.10;;;16.40;67.30;;;;;;4994831;28;20023;-79
2022/02/04 00:40:20;;;;;;;1.40;0.80;;;16.40;67.30;;;;;;4995013;28;20034;-79
2022/02/04 00:42:46;;;;;;;2.15;1.13;;;16.40;67.30;;;;;;4994539;28;20031;-78
2022/02/04 00:45:21;;;;;;;3.08;0.90;;;16.40;67.40;;;;;;4994391;28;20105;-79
2022/02/04 00:47:59;;;;;;;3.22;1.02;;;16.30;67.40;;;;;;4994535;28;20042;-78
2022/02/04 00:50:31;;;;;;;2.22;0.98;;;16.30;67.40;;;;;;4994311;28;20035;-76
2022/02/04 00:53:18;;;;;;;1.90;0.95;;;16.30;67.50;;;;;;4994003;28;20057;-77
2022/02/04 00:55:59;;;;;;;3.72;1.00;;;16.30;67.50;;;;;;4994155;28;20034;-78
2022/02/04 01:26:06;;;;;;;1.20;0.90;;;16.10;67.70;;;;;;4994368;28;20065;-78
2022/02/04 01:28:34;;;;;;;3.35;0.80;;;16.10;67.70;;;;;;4994160;28;20061;-76
2022/02/04 01:31:00;;;;;;;1.70;0.82;;;16.00;67.70;;;;;;4993617;28;20036;-78
2022/02/04 01:33:26;;;;;;;2.38;1.15;;;16.00;67.70;;;;;;4993217;28;20041;-77
2022/02/04 01:35:54;;;;;;;1.75;0.80;;;16.00;67.90;;;;;;4993732;28;20034;-78
2022/02/04 01:38:21;;;;;;;4.05;1.27;;;16.00;67.80;;;;;;4993886;28;20505;-77
2022/02/04 01:40:46;;;;;;;1.60;1.20;;;16.00;67.90;;;;;;4992680;28;20562;-76
2022/02/04 01:43:12;;;;;;;1.85;0.80;;;16.00;67.90;;;;;;4993756;28;20105;-77
2022/02/04 01:45:38;;;;;;;1.40;0.80;;;16.00;68.00;;;;;;4993236;28;20022;-77
2022/02/04 01:48:03;;;;;;;2.60;0.98;;;15.90;67.90;;;;;;4993683;28;20026;-79
2022/02/04 01:50:31;;;;;;;3.05;0.93;;;15.90;67.90;;;;;;4993688;28;20034;-76
2022/02/04 01:52:59;;;;;;;4.13;1.00;;;15.90;67.90;;;;;;4993083;28;20084;-77
2022/02/04 01:55:25;;;;;;;2.35;0.93;;;15.90;68.00;;;;;;4993321;28;20445;-77
2022/02/04 01:57:51;;;;;;;4.68;1.05;;;15.90;68.10;;;;;;4992136;28;20482;-78
2022/02/04 02:00:17;;;;;;;2.00;1.02;;;15.90;68.20;;;;;;4993075;28;20031;-77
2022/02/04 02:02:43;;;;;;;2.00;0.88;;;15.90;68.10;;;;;;4992755;28;20512;-78
2022/02/04 02:05:09;;;;;;;2.60;0.90;;;15.80;68.10;;;;;;4992832;28;20061;-79
2022/02/04 02:07:41;;;;;;;2.60;1.10;;;15.80;68.10;;;;;;4975245;28;20033;-78
2022/02/04 02:10:11;;;;;;;2.13;0.90;;;15.80;68.10;;;;;;4992969;28;20034;-78
2022/02/04 02:12:48;;;;;;;1.67;1.00;;;15.80;68.10;;;;;;4992336;28;20470;-78
2022/02/04 02:55:07;;;;;;;2.85;0.57;;;15.80;68.10;;;;;;4991966;28;20383;-77
2022/02/04 03:03:03;;;;;;;2.45;0.85;;;15.80;68.10;;;;;;4991872;28;20036;-78
2022/02/04 03:05:28;;;;;;;2.30;0.70;;;15.80;68.00;;;;;;4992139;28;20022;-79
2022/02/04 03:07:54;;;;;;;1.63;0.98;;;15.80;68.10;;;;;;4991177;28;20027;-78
2022/02/04 03:10:20;;;;;;;2.22;0.70;;;15.80;68.10;;;;;;4992122;28;20065;-79
2022/02/04 03:12:46;;;;;;;1.67;0.80;;;15.80;68.10;;;;;;4991818;28;20546;-79
2022/02/04 03:15:12;;;;;;;1.17;0.75;;;15.80;68.10;;;;;;4991703;28;20394;-79
2022/02/04 03:17:39;;;;;;;1.52;0.60;;;15.80;68.00;;;;;;4991862;28;20084;-79
2022/02/04 03:20:09;;;;;;;1.77;0.80;;;15.80;68.10;;;;;;4991084;28;20026;-78
2022/02/04 03:22:35;;;;;;;1.13;0.70;;;15.80;68.00;;;;;;4991066;28;20117;-78
2022/02/04 03:25:05;;;;;;;0.90;0.60;;;15.90;68.10;;;;;;4991711;28;20057;-77
2022/02/04 03:27:38;;;;;;;2.05;0.60;;;15.90;68.10;;;;;;4992430;28;20022;-78
2022/02/04 03:30:10;;;;;;;1.60;0.50;;;15.90;68.10;;;;;;4991268;28;20467;-78
2022/02/04 03:32:40;;;;;;;1.33;0.50;;;15.90;68.10;;;;;;4990232;28;20045;-78
2022/02/04 03:35:06;;;;;;;1.67;0.60;;;15.90;67.90;;;;;;4991661;28;20022;-79
2022/02/04 03:37:32;;;;;;;2.13;0.77;;;15.90;67.90;;;;;;4991842;28;20041;-77
2022/02/04 03:39:58;;;;;;;3.85;0.80;;;15.90;67.90;;;;;;4991912;28;20470;-78
2022/02/04 03:42:23;;;;;;;1.17;0.70;;;15.90;67.90;;;;;;4991272;28;20034;-78
2022/02/04 03:44:49;;;;;;;0.93;0.60;;;15.90;67.90;;;;;;4991006;28;20061;-77
2022/02/04 03:47:14;;;;;;;2.03;0.80;;;15.90;67.90;;;;;;4991076;28;20084;-78
2022/02/04 03:49:40;;;;;;;1.95;0.90;;;15.90;67.80;;;;;;4991500;28;20029;-78
2022/02/04 03:52:06;;;;;;;1.88;0.90;;;15.90;67.80;;;;;;4990594;28;20045;-79
2022/02/04 03:54:32;;;;;;;2.22;0.95;;;16.00;67.80;;;;;;4991703;28;20569;-78
2022/02/04 03:56:57;;;;;;;1.52;1.00;;;16.00;67.80;;;;;;4991709;28;20056;-79
2022/02/04 03:59:26;;;;;;;2.17;0.95;;;16.00;67.80;;;;;;4991253;28;20018;-78
2022/02/04 04:01:52;;;;;;;2.10;0.60;;;15.90;67.70;;;;;;4972699;28;20149;-78
2022/02/04 04:04:18;;;;;;;2.20;1.15;;;16.00;67.80;;;;;;4991563;28;20506;-78
2022/02/04 04:06:44;;;;;;;2.17;0.77;;;16.00;67.80;;;;;;4991045;28;20030;-78
2022/02/04 04:09:09;;;;;;;2.47;1.63;;;16.00;67.70;;;;;;4991638;28;20027;-78
2022/02/04 04:11:40;;;;;;;3.10;0.68;;;16.00;67.80;;;;;;4990763;28;20470;-78
2022/02/04 04:14:05;;;;;;;2.15;1.05;;;16.00;67.70;;;;;;4991269;28;20101;-78
2022/02/04 04:16:31;;;;;;;1.60;0.88;;;16.00;67.80;;;;;;4990869;28;20113;-78
2022/02/04 04:18:57;;;;;;;1.52;1.00;;;16.00;67.70;;;;;;4991677;28;20088;-78
2022/02/04 04:21:22;;;;;;;2.15;1.00;;;16.00;67.70;;;;;;4991278;28;20026;-77
2022/02/04 04:23:48;;;;;;;1.48;0.75;;;16.00;67.70;;;;;;4991034;28;20025;-77
2022/02/04 04:26:14;;;;;;;1.10;0.70;;;16.00;67.80;;;;;;4991029;28;20039;-77
2022/02/04 04:28:39;;;;;;;2.40;1.10;;;16.00;67.70;;;;;;4990434;28;20034;-77
2022/02/04 04:31:05;;;;;;;1.63;0.70;;;16.00;67.70;;;;;;4990932;28;20066;-77
2022/02/04 04:33:30;;;;;;;1.30;0.80;;;16.00;67.70;;;;;;4991193;28;20505;-76
2022/02/04 04:35:56;;;;;;;1.80;0.75;;;16.00;67.70;;;;;;4973525;28;20034;-78
2022/02/04 04:39:05;;;;;;;1.67;1.00;;;16.00;67.70;;;;;;4991381;28;20080;-77
2022/02/04 04:44:15;;;;;;;1.48;0.80;;;16.00;67.60;;;;;;4992087;28;20081;-77
2022/02/04 05:29:57;;;;;;;1.90;0.90;;;16.00;67.60;;;;;;4993790;28;20034;-78
2022/02/04 05:32:23;;;;;;;1.50;0.90;;;16.00;67.70;;;;;;4992841;28;20065;-78
2022/02/04 05:34:50;;;;;;;1.23;0.80;;;16.00;67.70;;;;;;4993490;28;20018;-80
2022/02/04 05:37:17;;;;;;;2.85;1.17;;;16.00;67.60;;;;;;4993229;28;20093;-78
2022/02/04 05:40:03;;;;;;;2.08;0.70;;;16.00;67.60;;;;;;4993710;28;20028;-78
2022/02/04 05:42:33;;;;;;;2.13;1.00;;;16.00;67.60;;;;;;4974711;28;20454;-77
2022/02/04 05:45:06;;;;;;;1.85;1.00;;;16.00;67.60;;;;;;4979776;28;20018;-79
2022/02/04 05:47:33;;;;;;;1.45;1.17;;;16.00;67.60;;;;;;4993868;28;20077;-78
2022/02/04 05:50:10;;;;;;;1.58;0.57;;;16.00;67.60;;;;;;4993410;28;20018;-78
2022/02/04 05:53:12;;;;;;;1.92;0.80;;;16.00;67.70;;;;;;4992518;28;20394;-79
2022/02/04 05:55:45;;;;;;;;;;;16.00;67.60;;;;;;4978520;28;20621;-80
2022/02/04 06:01:05;;;;;;;1.10;0.73;;;16.10;67.70;;;;;;4992732;28;20540;-80
2022/02/04 06:24:31;;;;;;;0.63;0.52;;;16.30;67.40;;;;;;4985297;28;20069;-80
2022/02/04 06:26:56;;;;;;;1.85;0.80;;;16.40;67.40;;;;;;4992077;28;20030;-77
2022/02/04 06:29:23;;;;;;;0.70;0.50;;;16.40;67.30;;;;;;4992346;28;20097;-76
2022/02/04 06:31:49;;;;;;;2.53;0.77;;;16.40;67.20;;;;;;4978219;28;20030;-77
2022/02/04 06:34:14;;;;;;;0.90;0.43;;;16.50;67.20;;;;;;4974481;28;20026;-79
2022/02/04 06:36:40;;;;;;;1.67;0.50;;;16.50;67.10;;;;;;4992689;28;20022;-78
2022/02/04 06:39:06;;;;;;;1.15;0.55;;;16.50;67.10;;;;;;4992878;28;20371;-78
2022/02/04 06:41:32;;;;;;;1.55;0.70;;;16.50;67.00;;;;;;4992200;28;20041;-76
2022/02/04 06:44:02;;;;;;;1.38;0.40;;;16.50;67.00;;;;;;4992751;28;20026;-77
2022/02/04 06:46:28;;;;;;;0.95;0.50;;;16.50;67.00;;;;;;4991768;28;20026;-81
2022/02/04 06:48:54;;;;;;;0.93;0.50;;;16.50;67.00;;;;;;4991565;28;20032;-78
2022/02/04 06:51:19;;;;;;;0.77;0.50;;;16.50;67.00;;;;;;4974271;28;20121;-78
2022/02/04 06:53:45;;;;;;;1.48;0.60;;;16.60;67.30;;;;;;4974592;28;20077;-78
2022/02/04 06:56:11;;;;;;;0.57;0.47;;;16.60;67.50;;;;;;4992544;28;20026;-77
2022/02/04 06:58:36;;;;;;;1.55;0.40;;;16.60;67.80;;;;;;4991947;28;20030;-79
2022/02/04 07:01:03;;;;;;;1.13;0.82;;;16.60;68.00;;;;;;4992199;28;20545;-78
2022/02/04 07:03:29;;;;;;;1.52;0.82;;;16.70;68.10;;;;;;4992168;28;20073;-76
2022/02/04 07:05:56;;;;;;;1.17;0.70;;;16.70;68.30;;;;;;4975959;28;20034;-77
2022/02/04 07:09:01;;;;;;;3.13;0.70;;;16.70;68.30;;;;;;4989859;28;20113;-77
2022/02/04 07:16:30;;;;;;;0.85;0.45;;;16.80;68.10;;;;;;4991621;28;20026;-76
2022/02/04 07:21:40;;;;;;;6.75;0.75;;;16.80;68.30;;;;;;4990308;28;20037;-77
2022/02/04 07:24:06;;;;;;;1.17;0.60;;;16.80;68.10;;;;;;4991598;28;20022;-76
2022/02/04 07:26:32;;;;;;;2.15;0.80;;;16.80;68.10;;;;;;4974553;28;20030;-76
2022/02/04 07:29:00;;;;;;;1.20;0.90;;;16.80;68.10;;;;;;4991917;28;20033;-77
2022/02/04 07:31:28;;;;;;;1.80;0.90;;;16.80;67.90;;;;;;4991193;28;20500;-77
2022/02/04 07:34:08;;;;;;;1.88;0.90;;;16.80;67.90;;;;;;4991554;28;20022;-78
2022/02/04 07:41:50;;;;;;;2.28;0.80;;;16.70;67.70;;;;;;4990435;28;20030;-77
2022/02/04 07:44:16;;;;;;;2.33;0.70;;;16.80;67.70;;;;;;4991079;28;20062;-76
2022/02/04 07:46:43;;;;;;;2.22;0.85;;;16.70;67.70;;;;;;4973726;28;20023;-78
2022/02/04 07:49:09;;;;;;;5.68;0.95;;;16.80;67.70;;;;;;4990870;28;20088;-76
2022/02/04 07:51:35;;;;;;;1.90;1.00;;;16.80;67.90;;;;;;4987416;28;20102;-76
2022/02/04 07:54:01;;;;;;;1.60;0.90;;;16.80;68.00;;;;;;4990512;28;20027;-77
2022/02/04 07:56:27;;;;;;;1.15;0.70;;;16.80;68.20;;;;;;4990471;28;20023;-76
2022/02/04 07:58:58;;;;;;;2.10;0.93;;;16.80;68.30;;;;;;4989551;28;20023;-76
2022/02/04 08:01:29;;;;;;;1.90;0.90;;;16.80;68.50;;;;;;4984117;28;20045;-77
2022/02/04 08:04:09;;;;;;;2.85;0.80;;;16.70;69.00;;;;;;4987652;28;20561;-77
2022/02/04 08:06:40;;;;;;;1.95;0.90;;;16.70;69.30;;;;;;4989689;28;20026;-76
2022/02/04 08:09:16;;;;;;;2.13;0.93;;;16.70;69.80;;;;;;4985014;28;20050;-76
2022/02/04 08:37:47;;;;;;;1.55;0.70;;;16.50;69.70;;;;;;4995042;28;20469;-76
2022/02/04 08:54:03;;;;;;;1.30;0.80;;;16.30;69.70;;;;;;4994839;28;20474;-76
2022/02/04 08:56:40;;;;;;;1.92;0.80;;;16.30;69.70;;;;;;4995079;28;20019;-77
2022/02/04 08:59:16;;;;;;;1.52;0.65;;;16.30;69.70;;;;;;4978946;28;20026;-77
2022/02/04 09:01:50;;;;;;;2.22;0.80;;;16.20;69.60;;;;;;4994467;28;20379;-77
2022/02/04 09:04:18;;;;;;;1.77;0.80;;;16.20;69.70;;;;;;4994485;28;20505;-76
2022/02/04 09:06:50;;;;;;;2.70;0.75;;;16.20;69.70;;;;;;4993796;28;20048;-76
2022/02/04 09:09:30;;;;;;;1.50;0.90;;;16.20;69.70;;;;;;4994483;28;20396;-76
2022/02/04 09:12:21;;;;;;;1.95;0.75;;;16.10;69.60;;;;;;4993579;28;20164;-75
2022/02/04 09:17:56;;;;;;;3.28;0.80;;;16.10;69.50;;;;;;4994206;28;20081;-75
2022/02/04 09:20:25;;;;;;;2.22;1.15;;;16.10;69.60;;;;;;4993150;28;20022;-76
2022/02/04 09:22:51;;;;;;;1.77;0.80;;;16.00;69.60;;;;;;4993206;28;20038;-75
2022/02/04 09:25:17;;;;;;;1.95;1.00;;;16.00;69.70;;;;;;4993790;28;20399;-75
2022/02/04 09:27:43;;;;;;;14.65;1.10;;;16.00;69.80;;;;;;4994035;28;20097;-75
2022/02/04 09:30:15;;;;;;;1.77;0.70;;;16.00;69.70;;;;;;4975310;28;20509;-76
2022/02/04 09:32:41;;;;;;;1.60;0.90;;;16.00;69.70;;;;;;4993301;28;20066;-77
2022/02/04 09:35:12;;;;;;;1.83;1.00;;;16.00;69.80;;;;;;4992926;28;20112;-78
2022/02/04 09:37:38;;;;;;;1.63;0.93;;;15.90;69.70;;;;;;4993057;28;20034;-77
2022/02/04 09:40:05;;;;;;;2.03;0.80;;;15.90;69.60;;;;;;4993962;28;20391;-78
2022/02/04 09:42:31;;;;;;;1.27;0.77;;;15.90;69.60;;;;;;4993863;28;20140;-77
2022/02/04 09:44:57;;;;;;;1.77;0.90;;;15.90;69.50;;;;;;4993565;28;20105;-78
2022/02/04 09:47:25;;;;;;;2.33;1.00;;;15.80;69.40;;;;;;4993706;28;20023;-78
2022/02/04 09:49:59;;;;;;;2.17;1.13;;;15.80;69.50;;;;;;4993500;28;20470;-76
2022/02/04 10:14:50;;;;;;;1.40;0.80;;;15.70;69.20;;;;;;4993588;28;20046;-77
2022/02/04 10:19:35;;;;;;;1.27;0.80;;;15.70;69.10;;;;;;4992808;28;20065;-78
2022/02/04 10:22:02;;;;;;;1.27;0.90;;;15.70;69.00;;;;;;4992882;28;20026;-77
2022/02/04 10:24:29;;;;;;;3.78;1.13;;;15.60;69.00;;;;;;5005109;28;20403;-76
2022/02/04 10:27:19;;;;;;;1.30;0.90;;;15.60;69.80;;;;;;4992753;28;20494;-77
2022/02/04 10:29:54;;;;;;;2.08;0.90;;;15.60;69.00;;;;;;4975126;28;20088;-76
2022/02/04 10:32:25;;;;;;;1.92;1.08;;;15.60;69.10;;;;;;4992256;28;20042;-76
2022/02/04 10:35:15;;;;;;;2.50;0.95;;;15.50;69.10;;;;;;4992508;28;20500;-77
2022/02/04 10:37:44;;;;;;;1.65;0.90;;;15.50;69.10;;;;;;4980108;28;20505;-77
2022/02/04 10:40:58;;;;;;;1.83;1.02;;;15.50;69.10;;;;;;4991525;28;20019;-76
2022/02/04 10:46:24;;;;;;;2.50;0.90;;;15.50;69.10;;;;;;4992723;28;20030;-76
2022/02/04 10:49:13;;;;;;;2.00;1.17;;;15.50;69.10;;;;;;4991009;28;20018;-77
2022/02/04 11:00:27;;;;;;;1.77;0.90;;;15.50;68.70;;;;;;4992243;28;20061;-76
2022/02/04 11:02:58;;;;;;;2.53;1.30;;;15.60;68.80;;;;;;4941970;28;20113;-76
2022/02/04 11:22:11;;;;;;;1.73;1.00;;;16.30;66.30;;;;;;4989602;28;20051;-77
2022/02/04 11:36:24;;;;;;;4.93;1.10;;;17.40;64.10;;;;;;4985391;28;20073;-77
2022/02/04 11:53:44;;;;;;;2.75;0.90;;;17.70;64.70;;;;;;4964940;28;20487;-79
2022/02/04 11:56:10;;;;;;;2.78;0.70;;;18.30;62.90;;;;;;4993854;28;20033;-78
2022/02/04 11:59:02;;;;;;;0.90;0.60;;;18.30;62.70;;;;;;4993980;28;20026;-77
2022/02/04 12:01:44;;;;;;;4.03;0.70;;;18.10;62.80;;;;;;4988207;28;20105;-77
2022/02/04 12:04:23;;;;;;;1.80;0.70;;;18.00;63.30;;;;;;4995033;28;20089;-78
2022/02/04 12:06:49;;;;;;;4.93;0.98;;;18.00;63.40;;;;;;4995121;28;20029;-77
2022/02/04 12:09:38;;;;;;;0.95;0.50;;;18.00;63.40;;;;;;4994055;28;20022;-77
2022/02/04 12:12:04;;;;;;;3.53;0.60;;;18.10;63.50;;;;;;4986650;28;20124;-78
2022/02/04 12:14:32;;;;;;;1.83;0.70;;;18.10;63.50;;;;;;4995776;28;20102;-79
2022/02/04 12:17:01;;;;;;;4.38;0.70;;;18.00;63.60;;;;;;4995027;28;20413;-78
2022/02/04 12:19:52;;;;;;;3.38;1.08;;;18.00;63.80;;;;;;4995295;28;20031;-77
2022/02/04 12:22:49;;;;;;;3.05;0.55;;;18.00;63.90;;;;;;4995289;28;20418;-79
2022/02/04 12:25:52;;;;;;;5.05;0.70;;;18.10;63.80;;;;;;4995034;28;20058;-77
2022/02/04 12:28:42;;;;;;;1.80;0.55;;;18.10;63.70;;;;;;4978399;28;20031;-77
2022/02/04 12:31:14;;;;;;;2.80;0.45;;;18.10;63.70;;;;;;4994594;28;20498;-79
2022/02/04 12:33:42;;;;;;;1.90;0.45;;;18.10;63.60;;;;;;4994810;28;20030;-77
2022/02/04 12:36:15;;;;;;;1.38;0.68;;;18.10;63.30;;;;;;4995267;28;20386;-77
2022/02/04 12:38:41;;;;;;;1.33;0.50;;;18.20;63.20;;;;;;4995007;28;20030;-78
2022/02/04 12:41:07;;;;;;;1.55;0.50;;;18.20;63.10;;;;;;4995074;28;20023;-79
2022/02/04 12:43:37;;;;;;;1.20;0.60;;;18.20;63.10;;;;;;4977326;28;20097;-77
2022/02/04 12:46:04;;;;;;;3.05;0.70;;;18.30;63.10;;;;;;4994675;28;20097;-79
2022/02/04 12:48:31;;;;;;;2.58;1.00;;;18.30;62.90;;;;;;4994049;28;20057;-77
2022/02/04 12:50:57;;;;;;;1.40;0.60;;;18.30;63.00;;;;;;4993287;28;20026;-79
2022/02/04 12:53:29;;;;;;;2.17;0.60;;;18.30;63.00;;;;;;4993203;28;20034;-79
2022/02/04 12:56:13;;;;;;;1.40;0.55;;;18.30;62.80;;;;;;4992048;28;20033;-77
2022/02/04 12:58:56;;;;;;;1.65;0.70;;;18.30;62.90;;;;;;4993495;28;20371;-78
2022/02/04 13:12:07;;;;;;;1.27;0.60;;;18.70;61.60;;;;;;4994236;28;20078;-77
2022/02/04 13:14:32;;;;;;;1.38;0.70;;;18.70;61.20;;;;;;4994216;28;20490;-77
2022/02/04 13:16:58;;;;;;;0.88;0.50;;;18.70;60.80;;;;;;4993708;28;20019;-79
2022/02/04 13:19:24;;;;;;;3.00;0.80;;;18.90;60.60;;;;;;4993431;28;20417;-76
2022/02/04 13:21:50;;;;;;;2.15;0.68;;;18.80;60.70;;;;;;4993149;28;20045;-77
2022/02/04 13:24:19;;;;;;;1.58;0.68;;;18.60;61.10;;;;;;4975199;28;20502;-77
2022/02/04 13:26:45;;;;;;;1.60;0.70;;;18.50;61.80;;;;;;4992315;28;20018;-76
2022/02/04 13:29:11;;;;;;;4.03;0.68;;;18.40;61.60;;;;;;4992317;28;20045;-76
2022/02/04 13:31:37;;;;;;;1.98;0.82;;;18.30;61.90;;;;;;4974571;28;20109;-77
2022/02/04 13:34:11;;;;;;;1.70;0.57;;;18.20;62.00;;;;;;4992353;28;20026;-75
2022/02/04 13:36:50;;;;;;;1.13;0.60;;;18.10;62.90;;;;;;4989787;28;20512;-77
2022/02/04 13:39:33;;;;;;;1.65;0.60;;;18.10;62.40;;;;;;4990085;28;20042;-76
2022/02/04 13:44:49;;;;;;;1.65;0.50;;;17.90;63.20;;;;;;4992378;28;20038;-77
2022/02/04 13:48:01;;;;;;;2.20;0.65;;;17.90;63.40;;;;;;4992197;28;20506;-77
2022/02/04 13:53:07;;;;;;;2.75;0.60;;;17.80;63.20;;;;;;4992161;28;20054;-77
2022/02/04 14:03:37;;;;;;;2.10;0.43;;;17.60;63.80;;;;;;4993127;28;20514;-77
2022/02/04 14:06:10;;;;;;;1.38;0.60;;;17.60;63.70;;;;;;4993521;28;20088;-76
2022/02/04 14:08:48;;;;;;;0.95;0.47;;;17.50;64.10;;;;;;4993241;28;20399;-77
2022/02/04 14:11:29;;;;;;;3.60;0.77;;;17.50;64.30;;;;;;4993169;28;20406;-77
2022/02/04 14:13:55;;;;;;;1.88;0.50;;;17.50;64.10;;;;;;4992264;28;20045;-76
2022/02/04 14:16:21;;;;;;;0.90;0.50;;;17.50;64.00;;;;;;4991650;28;20478;-77
2022/02/04 14:18:48;;;;;;;2.70;0.50;;;17.40;64.50;;;;;;4992604;28;20441;-75
2022/02/04 14:21:16;;;;;;;2.55;0.70;;;17.40;64.20;;;;;;4993187;28;20026;-77
2022/02/04 14:23:44;;;;;;;0.80;0.40;;;17.40;64.00;;;;;;4992900;28;20027;-77
2022/02/04 14:26:19;;;;;;;1.52;0.60;;;17.40;64.10;;;;;;4993091;28;20506;-76
2022/02/04 15:00:52;;;;;;;2.85;0.70;;;16.90;65.10;;;;;;4991476;28;20102;-77
2022/02/04 15:03:35;;;;;;;1.15;0.55;;;16.80;65.00;;;;;;4991965;28;20037;-76
2022/02/04 15:08:30;;;;;;;1.45;0.68;;;16.80;65.20;;;;;;4992441;28;20490;-77
2022/02/04 15:10:59;;;;;;;1.98;0.80;;;16.80;65.30;;;;;;4991363;28;20105;-78
2022/02/04 15:13:25;;;;;;;1.35;0.60;;;16.80;65.30;;;;;;4990198;28;20502;-77
2022/02/04 15:15:50;;;;;;;1.00;0.47;;;16.70;65.60;;;;;;4991307;28;20052;-77
2022/02/04 15:18:16;;;;;;;2.40;0.90;;;16.70;65.50;;;;;;4990763;28;20084;-78
2022/02/04 15:20:42;;;;;;;3.10;0.98;;;16.70;65.60;;;;;;4990826;28;20053;-76
2022/02/04 15:23:11;;;;;;;2.33;0.80;;;16.70;65.50;;;;;;4991932;28;20356;-77
2022/02/04 15:25:37;;;;;;;1.08;0.50;;;16.70;65.50;;;;;;4991600;28;20025;-77
2022/02/04 15:30:42;;;;;;;1.25;0.52;;;16.60;65.40;;;;;;4991032;28;20029;-75
2022/02/04 15:33:07;;;;;;;1.98;0.60;;;16.60;65.50;;;;;;4991415;28;20569;-76
2022/02/04 15:35:33;;;;;;;1.15;0.60;;;16.60;65.40;;;;;;4991680;28;20054;-79
2022/02/04 15:37:59;;;;;;;1.40;0.70;;;16.60;65.50;;;;;;4992145;28;20079;-80
2022/02/04 15:40:25;;;;;;;2.67;0.70;;;16.60;65.50;;;;;;4991540;28;20027;-77
2022/02/04 15:42:57;;;;;;;2.63;0.70;;;16.60;65.50;;;;;;4990960;28;20021;-76
2022/02/04 15:51:19;;;;;;;1.25;0.70;;;16.50;65.50;;;;;;4983681;28;20422;-76
2022/02/04 15:54:35;;;;;;;1.15;0.50;;;16.50;65.50;;;;;;4990070;28;20030;-77
2022/02/04 16:01:58;;;;;;;1.38;0.57;;;16.50;65.50;;;;;;4991530;28;20034;-76
2022/02/04 16:04:26;;;;;;;0.75;0.38;;;16.50;65.50;;;;;;4990246;28;20037;-76
2022/02/04 16:06:52;;;;;;;1.63;0.52;;;16.50;65.50;;;;;;4991368;28;20037;-77
2022/02/04 16:09:21;;;;;;;1.25;0.50;;;16.40;65.50;;;;;;4973865;28;20053;-75
2022/02/04 16:16:47;;;;;;;2.65;0.68;;;16.40;65.50;;;;;;4990549;28;20458;-76
2022/02/04 16:29:45;;;;;;;2.05;0.68;;;16.30;65.70;;;;;;4987380;28;20506;-75
2022/02/04 16:32:13;;;;;;;2.22;0.80;;;16.30;65.80;;;;;;4989739;28;20022;-76
2022/02/04 16:34:39;;;;;;;1.23;0.50;;;16.30;65.70;;;;;;4971983;28;20037;-75
2022/02/04 16:37:16;;;;;;;2.22;0.88;;;16.30;65.50;;;;;;4989630;28;20022;-76
2022/02/04 16:39:43;;;;;;;5.68;1.98;;;16.30;65.50;;;;;;4990061;28;20398;-76
2022/02/04 16:42:14;;;;;;;5.97;2.75;;;16.30;65.40;;;;;;4989322;28;20482;-75
2022/02/04 16:44:39;;;;;;;3.95;1.75;;;16.40;65.30;;;;;;4976220;28;20037;-78
2022/02/04 16:47:06;;;;;;;4.25;2.30;;;16.50;65.30;;;;;;4993426;28;20389;-76
2022/02/04 16:49:32;;;;;;;3.53;2.08;;;16.60;65.20;;;;;;4994436;28;20482;-76
2022/02/04 16:51:57;;;;;;;5.20;1.95;;;16.60;65.10;;;;;;4986738;28;20064;-77
2022/02/04 16:54:25;;;;;;;4.13;1.60;;;16.70;65.10;;;;;;4994009;28;20034;-77
2022/02/04 16:56:52;;;;;;;3.60;1.83;;;16.70;65.10;;;;;;4994331;28;20073;-77
2022/02/04 16:59:17;;;;;;;3.13;1.70;;;16.80;65.00;;;;;;4994259;28;20077;-77
2022/02/04 17:01:43;;;;;;;3.35;1.40;;;16.90;65.00;;;;;;4993537;28;20030;-77
2022/02/04 17:04:11;;;;;;;3.35;1.52;;;16.90;64.90;;;;;;4993721;28;20049;-76
2022/02/04 17:06:40;;;;;;;3.45;1.35;;;17.00;64.80;;;;;;4993393;28;20417;-79
2022/02/04 17:11:46;;;;;;;;;;;17.10;64.30;;;;;;4989785;28;20027;-77
2022/02/04 17:14:13;;;;;;;2.33;0.90;;;17.20;64.10;;;;;;4989947;28;19917;-78
2022/02/04 17:16:42;;;;;;;4.13;1.10;;;17.30;64.20;;;;;;4992218;28;20015;-79
2022/02/04 17:19:20;;;;;;;3.15;1.13;;;17.40;64.00;;;;;;4991857;28;20030;-79
2022/02/04 17:21:47;;;;;;;2.30;0.90;;;17.40;63.90;;;;;;4990723;28;20030;-78
2022/02/04 17:24:14;;;;;;;3.35;1.20;;;17.50;63.90;;;;;;4974955;28;20022;-79
2022/02/04 17:26:40;;;;;;;4.50;1.23;;;17.60;63.90;;;;;;4992370;28;20022;-79
2022/02/04 17:29:10;;;;;;;1.92;1.05;;;17.60;63.70;;;;;;4992668;28;20085;-79
2022/02/04 17:31:37;;;;;;;4.40;1.67;;;17.70;63.60;;;;;;4989830;28;20109;-80
2022/02/04 17:34:04;;;;;;;7.55;1.17;;;17.70;63.40;;;;;;4988059;28;20038;-80
2022/02/04 17:36:34;;;;;;;6.32;1.58;;;17.80;63.20;;;;;;4992722;28;20400;-79
2022/02/04 17:39:01;;;;;;;2.05;0.75;;;17.90;63.20;;;;;;4989701;28;20030;-80
2022/02/04 17:41:27;;;;;;;2.83;1.10;;;18.00;63.00;;;;;;4993459;28;20034;-79
2022/02/04 17:43:54;;;;;;;3.00;1.10;;;18.00;63.00;;;;;;4989378;28;20026;-80
2022/02/04 17:46:25;;;;;;;4.82;1.20;;;18.10;63.20;;;;;;4992284;28;20061;-79
2022/02/04 17:48:57;;;;;;;4.20;1.40;;;18.30;63.30;;;;;;4992000;28;20030;-79
2022/02/04 17:54:12;;;;;;;2.92;1.20;;;18.40;62.90;;;;;;4960987;28;20038;-79
2022/02/04 17:56:52;;;;;;;4.72;1.20;;;18.50;63.10;;;;;;4988517;28;20510;-80
2022/02/04 18:07:32;;;;;;;2.97;1.30;;;18.60;64.20;;;;;;4992915;28;20073;-79
2022/02/04 18:09:57;;;;;;;4.35;1.67;;;18.70;64.10;;;;;;4992587;28;20031;-79
2022/02/04 18:12:24;;;;;;;5.57;1.48;;;18.70;64.00;;;;;;4988679;28;20119;-80
2022/02/04 18:14:53;;;;;;;8.77;1.85;;;18.70;64.10;;;;;;4987266;28;20023;-78
2022/02/04 18:17:20;;;;;;;6.88;1.85;;;18.80;64.20;;;;;;4989259;28;20588;-78
2022/02/04 18:19:46;;;;;;;3.10;1.58;;;18.80;64.30;;;;;;4991289;28;20021;-79
2022/02/04 18:22:13;;;;;;;5.45;2.15;;;18.80;64.20;;;;;;4991117;28;20035;-80
2022/02/04 18:24:39;;;;;;;3.97;1.50;;;18.90;64.20;;;;;;4985130;28;20029;-78
2022/02/04 18:27:08;;;;;;;4.68;1.80;;;18.90;64.10;;;;;;4989489;28;20026;-78
2022/02/04 18:29:40;;;;;;;4.38;2.10;;;18.90;64.10;;;;;;4987435;28;20034;-79
2022/02/04 18:32:08;;;;;;;5.15;1.88;;;18.90;64.10;;;;;;4989475;28;20022;-78
2022/02/04 18:34:34;;;;;;;6.75;2.55;;;18.90;64.20;;;;;;4988662;28;20034;-79
2022/02/04 18:37:01;;;;;;;4.53;1.60;;;19.00;63.90;;;;;;4992665;28;20077;-78
2022/02/04 18:42:22;;;;;;;2.85;1.60;;;19.10;64.00;;;;;;4991418;28;20484;-80
2022/02/04 18:44:52;;;;;;;7.22;2.15;;;19.10;64.10;;;;;;4990335;28;20026;-78
2022/02/04 18:50:01;;;;;;;3.22;1.67;;;19.10;64.50;;;;;;4989870;28;20029;-78
2022/02/04 18:52:43;;;;;;;4.47;2.30;;;19.20;64.70;;;;;;4991902;28;20089;-79
2022/02/04 18:57:37;;;;;;;4.00;1.80;;;19.20;64.50;;;;;;4992212;28;20034;-80
2022/02/04 19:00:16;;;;;;;7.20;1.90;;;19.30;64.20;;;;;;4990911;28;20029;-78
2022/02/04 19:02:44;;;;;;;6.25;1.83;;;19.30;64.20;;;;;;4990666;28;20026;-80
2022/02/04 19:05:19;;;;;;;3.08;1.35;;;19.40;64.80;;;;;;4992259;28;20471;-77
2022/02/04 19:10:13;;;;;;;5.18;2.13;;;19.30;64.60;;;;;;4992285;28;20030;-79
2022/02/04 19:12:56;;;;;;;6.43;1.73;;;19.40;64.50;;;;;;4991457;28;20042;-77
2022/02/04 19:15:31;;;;;;;4.38;1.98;;;19.40;64.30;;;;;;4986976;28;20022;-77
2022/02/04 19:18:02;;;;;;;3.85;1.75;;;19.40;64.30;;;;;;4991146;28;20022;-77
2022/02/04 19:21:01;;;;;;;4.07;1.73;;;19.40;64.40;;;;;;4990526;28;20038;-77
2022/02/04 19:23:23;;;;;;;3.65;1.77;;;19.30;64.10;;;;;;4987266;28;20034;-76
2022/02/04 19:25:53;;;;;;;5.70;1.77;;;19.40;63.70;;;;;;4990431;28;20026;-77
2022/02/04 19:28:22;;;;;;;4.10;1.92;;;19.50;63.30;;;;;;4991273;28;20038;-77
2022/02/04 19:30:50;;;;;;;5.03;2.15;;;19.60;63.20;;;;;;4991698;28;20022;-77
2022/02/04 19:33:17;;;;;;;7.60;2.05;;;19.60;63.50;;;;;;4990424;28;20038;-76
2022/02/04 19:35:43;;;;;;;9.50;2.33;;;19.50;63.90;;;;;;4976352;28;20069;-76
2022/02/04 19:38:09;;;;;;;10.20;1.92;;;19.50;64.10;;;;;;4990395;28;20066;-77
2022/02/04 19:40:38;;;;;;;7.80;2.25;;;19.50;64.40;;;;;;4990164;28;20057;-78
2022/02/04 19:43:03;;;;;;;5.18;1.70;;;19.40;64.40;;;;;;4985230;28;20022;-77
2022/02/04 19:45:33;;;;;;;5.13;2.13;;;19.40;64.50;;;;;;4991233;28;20515;-76
2022/02/04 19:48:06;;;;;;;6.43;2.20;;;19.50;64.20;;;;;;4988005;28;20478;-76
2022/02/04 20:07:06;;;;;;;3.85;1.80;;;19.60;64.10;;;;;;4985547;28;20465;-75
2022/02/04 20:25:30;;;;;;;6.78;2.05;;;19.60;63.40;;;;;;4992241;28;20058;-77
2022/02/04 20:28:04;;;;;;;6.35;2.20;;;19.50;63.80;;;;;;4993551;28;20600;-76
2022/02/04 20:30:29;;;;;;;3.45;1.88;;;19.40;63.80;;;;;;4992437;28;20072;-76